createdAt,value
2023-03-28T00:03:19.835Z,92.93
2023-03-28T00:13:20.142Z,92.89
2023-03-28T00:23:20.118Z,92.68
2023-03-28T00:33:20.335Z,91.12
2023-03-28T00:43:20.541Z,90.14
2023-03-28T00:53:20.745Z,92.47
2023-03-28T01:03:21.001Z,94.60
2023-03-28T01:13:21.243Z,95.33
2023-03-28T01:23:21.286Z,94.85
2023-03-28T01:33:21.517Z,95.79
2023-03-28T01:43:21.723Z,95.58
2023-03-28T01:53:21.924Z,95.33
2023-03-28T02:03:22.177Z,94.98
2023-03-28T02:13:22.363Z,93.87
2023-03-28T02:23:22.573Z,93.14
2023-03-28T02:33:22.788Z,93.93
2023-03-28T02:43:22.986Z,94.82
2023-03-28T02:53:23.197Z,95.73
2023-03-28T03:03:23.576Z,96.86
2023-03-28T03:13:23.640Z,97.59
2023-03-28T03:23:23.836Z,97.70
2023-03-28T03:33:24.085Z,97.49
2023-03-28T03:43:24.300Z,96.66
2023-03-28T03:53:24.506Z,96.44
2023-03-28T04:03:25.612Z,95.98
2023-03-28T04:13:24.921Z,96.19
2023-03-28T04:23:25.107Z,95.36
2023-03-28T04:33:25.342Z,92.18
2023-03-28T04:43:25.533Z,93.33
2023-03-28T04:53:25.738Z,95.50
2023-03-28T05:03:26.107Z,96.34
2023-03-28T05:13:26.131Z,96.76
2023-03-28T05:23:26.329Z,96.97
2023-03-28T05:33:26.543Z,96.86
2023-03-28T05:43:26.759Z,96.97
2023-03-28T05:53:26.989Z,97.03
2023-03-28T06:03:27.210Z,96.30
2023-03-28T06:13:27.397Z,94.00
2023-03-28T06:23:27.604Z,93.02
2023-03-28T06:33:27.814Z,95.46
2023-03-28T06:43:28.013Z,96.86
2023-03-28T06:53:28.235Z,95.94
2023-03-28T07:03:28.476Z,93.91
2023-03-28T07:13:28.661Z,94.31
2023-03-28T07:23:28.869Z,93.48
2023-03-28T07:33:36.227Z,91.04
2023-03-28T07:43:30.324Z,88.40
2023-03-28T07:53:29.540Z,85.65
2023-03-28T08:03:29.821Z,84.68
2023-03-28T08:13:29.901Z,85.64
2023-03-28T08:23:30.150Z,82.55
2023-03-28T08:33:30.338Z,79.27
2023-03-28T08:43:30.559Z,77.98
2023-03-28T08:53:30.758Z,78.19
2023-03-28T09:03:31.041Z,74.12
2023-03-28T09:13:31.054Z,71.09
2023-03-28T09:23:31.250Z,70.17
2023-03-28T09:33:31.437Z,69.34
2023-03-28T09:43:31.646Z,64.53
2023-03-28T09:53:33.230Z,61.61
2023-03-28T10:03:32.025Z,62.25
2023-03-28T10:13:32.207Z,58.86
2023-03-28T10:23:32.420Z,57.39
2023-03-28T10:33:33.691Z,53.38
2023-03-28T10:43:32.871Z,52.53
2023-03-28T10:53:33.077Z,52.39
2023-03-28T11:03:33.374Z,51.18
2023-03-28T11:13:34.374Z,44.35
2023-03-28T11:23:35.539Z,42.97
2023-03-28T11:33:33.660Z,49.22
2023-03-28T11:43:33.871Z,46.36
2023-03-28T11:53:34.083Z,45.60
2023-03-28T12:03:34.424Z,43.73
2023-03-28T12:13:41.674Z,44.37
2023-03-28T12:23:35.710Z,44.02
2023-03-28T12:33:34.935Z,43.61
2023-03-28T12:43:35.150Z,42.40
2023-03-28T12:53:35.459Z,40.11
2023-03-28T13:03:35.459Z,43.65
2023-03-28T13:13:35.657Z,40.61
2023-03-28T13:23:35.886Z,39.83
2023-03-28T13:33:36.097Z,40.28
2023-03-28T13:43:36.328Z,41.20
2023-03-28T13:53:47.126Z,39.00
2023-03-28T14:03:38.587Z,38.46
2023-03-28T14:13:36.971Z,37.65
2023-03-28T14:23:37.179Z,37.75
2023-03-28T14:33:37.586Z,36.17
2023-03-28T14:43:37.643Z,38.64
2023-03-28T14:53:37.884Z,36.92
2023-03-28T15:03:38.208Z,35.44
2023-03-28T15:13:38.345Z,33.05
2023-03-28T15:23:38.368Z,34.13
2023-03-28T15:33:38.572Z,34.19
2023-03-28T15:43:38.775Z,35.60
2023-03-28T15:53:38.967Z,35.58
2023-03-28T16:03:39.230Z,34.78
2023-03-28T16:13:39.446Z,36.87
2023-03-28T16:23:39.636Z,37.91
2023-03-28T16:33:39.887Z,37.74
2023-03-28T16:43:39.876Z,38.57
2023-03-28T16:53:40.226Z,38.70
2023-03-28T17:03:40.308Z,39.23
2023-03-28T17:13:40.728Z,43.04
2023-03-28T17:23:40.608Z,43.79
2023-03-28T17:33:40.994Z,47.71
2023-03-28T17:43:41.144Z,49.27
2023-03-28T17:53:41.492Z,51.48
2023-03-28T18:03:41.847Z,54.20
2023-03-28T18:13:42.534Z,55.26
2023-03-28T18:23:43.405Z,56.31
2023-03-28T18:33:41.961Z,55.41
2023-03-28T18:43:42.184Z,56.88
2023-03-28T18:53:42.174Z,57.11
2023-03-28T19:03:42.622Z,56.90
2023-03-28T19:13:42.445Z,56.52
2023-03-28T19:23:42.603Z,56.10
2023-03-28T19:33:42.822Z,56.62
2023-03-28T19:43:43.029Z,56.21
2023-03-28T19:53:43.239Z,56.34
2023-03-28T20:03:43.372Z,55.00
2023-03-28T20:13:43.556Z,52.91
2023-03-28T20:23:43.463Z,52.81
2023-03-28T20:33:43.648Z,53.96
2023-03-28T20:43:43.911Z,53.03
2023-03-28T20:53:44.107Z,53.24
2023-03-28T21:03:44.312Z,54.38
2023-03-28T21:13:44.522Z,56.16
2023-03-28T21:23:44.722Z,52.00
2023-03-28T21:33:44.940Z,55.33
2023-03-28T21:43:45.147Z,53.45
2023-03-28T21:53:45.332Z,52.00
2023-03-28T22:03:45.634Z,54.40
2023-03-28T22:13:45.671Z,50.41
2023-03-28T22:23:46.995Z,51.98
2023-03-28T22:33:46.148Z,51.70
2023-03-28T22:43:46.377Z,50.76
2023-03-28T22:53:46.574Z,52.52
2023-03-28T23:03:46.774Z,53.99
2023-03-28T23:13:47.006Z,53.66
2023-03-28T23:23:47.201Z,53.24
2023-03-28T23:33:47.398Z,54.38
2023-03-28T23:43:47.606Z,57.17
2023-03-28T23:53:47.833Z,54.84
